createdAt,value
2018-09-12T00:00:20.562Z,14.10
2018-09-12T00:02:50.332Z,14.00
2018-09-12T00:05:20.206Z,14.00
2018-09-12T00:07:50.467Z,13.90
2018-09-12T00:10:20.585Z,13.80
2018-09-12T00:12:50.539Z,13.70
2018-09-12T00:15:20.197Z,13.60
2018-09-12T00:17:50.148Z,13.50
2018-09-12T00:20:20.227Z,13.50
2018-09-12T00:22:50.287Z,13.50
2018-09-12T00:25:20.104Z,13.50
2018-09-12T00:30:24.910Z,13.60
2018-09-12T00:32:55.006Z,13.70
2018-09-12T00:35:25.084Z,13.60
2018-09-12T00:37:55.165Z,13.60
2018-09-12T00:40:25.359Z,13.60
2018-09-12T00:42:55.496Z,13.70
2018-09-12T00:45:25.469Z,13.80
2018-09-12T00:50:26.530Z,13.70
2018-09-12T00:52:56.367Z,13.70
2018-09-12T00:55:26.395Z,13.60
2018-09-12T00:57:56.673Z,13.60
2018-09-12T01:00:25.858Z,13.60
2018-09-12T01:02:55.969Z,13.60
2018-09-12T01:05:26.111Z,13.50
2018-09-12T01:07:57.078Z,13.50
2018-09-12T01:10:27.192Z,13.40
2018-09-12T01:12:57.958Z,13.40
2018-09-12T01:15:28.131Z,13.50
2018-09-12T01:17:58.406Z,13.50
2018-09-12T01:20:28.375Z,13.50
2018-09-12T01:22:59.544Z,13.50
2018-09-12T01:25:29.068Z,13.40
2018-09-12T01:27:59.296Z,13.40
2018-09-12T01:30:29.442Z,13.40
2018-09-12T01:32:59.366Z,13.40
2018-09-12T01:35:29.488Z,13.40
2018-09-12T01:37:59.946Z,13.40
2018-09-12T01:40:30.118Z,13.40
2018-09-12T01:43:00.172Z,13.50
2018-09-12T01:45:30.303Z,13.50
2018-09-12T01:50:32.164Z,13.60
2018-09-12T01:53:02.411Z,13.50
2018-09-12T01:55:33.238Z,13.50
2018-09-12T01:58:03.585Z,13.50
2018-09-12T02:00:39.257Z,13.40
2018-09-12T02:03:08.886Z,13.40
2018-09-12T02:05:38.587Z,13.40
2018-09-12T02:08:09.535Z,13.40
2018-09-12T02:10:39.511Z,13.30
2018-09-12T02:13:09.276Z,13.30
2018-09-12T02:15:40.295Z,13.20
2018-09-12T02:18:10.129Z,13.20
2018-09-12T02:20:40.994Z,13.20
2018-09-12T02:23:11.283Z,13.20
2018-09-12T02:25:41.463Z,13.20
2018-09-12T02:28:10.865Z,13.20
2018-09-12T02:30:40.061Z,13.20
2018-09-12T02:33:10.566Z,13.10
2018-09-12T02:39:19.288Z,13.20
2018-09-12T02:41:48.762Z,13.10
2018-09-12T02:44:18.537Z,13.00
2018-09-12T02:46:48.857Z,13.00
2018-09-12T02:49:19.024Z,13.00
2018-09-12T02:51:49.634Z,13.10
2018-09-12T02:54:19.086Z,13.00
2018-09-12T02:56:49.421Z,13.00
2018-09-12T02:59:19.095Z,13.10
2018-09-12T03:01:49.014Z,13.00
2018-09-12T03:04:18.958Z,13.00
2018-09-12T03:06:49.025Z,13.00
2018-09-12T03:09:19.376Z,12.90
2018-09-12T03:11:49.550Z,12.90
2018-09-12T03:14:18.763Z,12.80
2018-09-12T03:16:48.915Z,12.80
2018-09-12T03:19:19.269Z,12.80
2018-09-12T03:21:48.846Z,12.80
2018-09-12T03:24:18.884Z,12.70
2018-09-12T03:26:49.250Z,12.70
2018-09-12T03:29:24.542Z,12.70
2018-09-12T03:31:59.776Z,12.60
2018-09-12T03:34:30.151Z,12.50
2018-09-12T03:37:00.085Z,12.50
2018-09-12T03:39:30.503Z,12.40
2018-09-12T03:41:59.646Z,12.40
2018-09-12T03:44:29.026Z,12.40
2018-09-12T03:49:34.009Z,12.50
2018-09-12T03:52:06.716Z,12.50
2018-09-12T03:54:36.798Z,12.50
2018-09-12T03:57:07.329Z,12.50
2018-09-12T03:59:37.439Z,12.50
2018-09-12T04:02:07.537Z,12.50
2018-09-12T04:04:37.095Z,12.50
2018-09-12T04:07:06.718Z,12.50
2018-09-12T04:09:37.070Z,12.50
2018-09-12T04:12:06.610Z,12.40
2018-09-12T04:14:36.826Z,12.40
2018-09-12T04:19:42.342Z,12.40
2018-09-12T04:22:11.756Z,12.40
2018-09-12T04:24:41.253Z,12.40
2018-09-12T04:27:11.258Z,12.30
2018-09-12T04:29:40.975Z,12.30
2018-09-12T04:32:11.270Z,12.30
2018-09-12T04:34:41.690Z,12.30
2018-09-12T04:37:12.017Z,12.30
2018-09-12T04:39:42.555Z,12.40
2018-09-12T04:42:12.150Z,12.40
2018-09-12T04:44:43.178Z,12.40
2018-09-12T04:47:13.355Z,12.40
2018-09-12T04:49:42.921Z,12.40
2018-09-12T04:52:13.402Z,12.40
2018-09-12T04:54:55.093Z,12.40
2018-09-12T04:57:25.253Z,12.40
2018-09-12T04:59:55.941Z,12.50
2018-09-12T05:02:26.441Z,12.50
2018-09-12T05:04:56.841Z,12.60
2018-09-12T05:07:26.837Z,12.60
2018-09-12T05:09:57.105Z,12.50
2018-09-12T05:12:33.847Z,12.60
2018-09-12T05:15:04.080Z,12.50
2018-09-12T05:17:34.285Z,12.60
2018-09-12T05:20:04.438Z,12.60
2018-09-12T05:22:34.525Z,12.60
2018-09-12T05:25:04.722Z,12.60
2018-09-12T05:27:35.258Z,12.60
2018-09-12T05:30:05.918Z,12.60
2018-09-12T05:32:36.860Z,12.50
2018-09-12T05:35:07.230Z,12.60
2018-09-12T05:37:37.047Z,12.70
2018-09-12T05:40:07.785Z,12.70
2018-09-12T05:42:37.916Z,12.70
2018-09-12T05:45:08.404Z,12.70
2018-09-12T05:47:38.698Z,12.70
2018-09-12T05:50:08.344Z,12.70
2018-09-12T05:52:39.303Z,12.70
2018-09-12T05:55:09.601Z,12.60
2018-09-12T05:57:40.220Z,12.60
2018-09-12T06:00:10.544Z,12.70
2018-09-12T06:02:40.894Z,12.70
2018-09-12T06:05:11.034Z,12.80
2018-09-12T06:07:40.978Z,12.80
2018-09-12T06:10:11.186Z,12.80
2018-09-12T06:12:41.050Z,12.90
2018-09-12T06:15:11.295Z,12.90
2018-09-12T06:17:41.241Z,13.00
2018-09-12T06:20:11.053Z,13.10
2018-09-12T06:22:41.409Z,13.10
2018-09-12T06:25:11.633Z,13.20
2018-09-12T06:27:41.953Z,13.30
2018-09-12T06:30:12.070Z,13.30
2018-09-12T06:32:42.147Z,13.40
2018-09-12T06:35:12.380Z,13.40
2018-09-12T06:37:44.140Z,13.50
2018-09-12T06:40:14.457Z,13.60
2018-09-12T06:42:44.590Z,13.60
2018-09-12T06:45:15.528Z,13.60
2018-09-12T06:47:47.118Z,13.60
2018-09-12T06:50:16.667Z,13.60
2018-09-12T06:52:46.966Z,13.60
2018-09-12T06:55:17.102Z,13.60
2018-09-12T06:57:46.942Z,13.60
2018-09-12T07:00:16.678Z,13.60
2018-09-12T07:02:46.753Z,13.70
2018-09-12T07:05:16.773Z,13.70
2018-09-12T07:07:47.054Z,13.80
2018-09-12T07:10:17.509Z,13.80
2018-09-12T07:12:47.289Z,13.90
2018-09-12T07:15:17.350Z,13.90
2018-09-12T07:17:47.262Z,13.90
2018-09-12T07:20:17.011Z,14.00
2018-09-12T07:22:47.038Z,14.00
2018-09-12T07:25:17.209Z,14.10
2018-09-12T07:27:46.954Z,14.20
2018-09-12T07:30:17.573Z,14.20
2018-09-12T07:32:47.596Z,14.30
2018-09-12T07:35:17.676Z,14.40
2018-09-12T07:37:47.661Z,14.50
2018-09-12T07:40:17.913Z,14.60
2018-09-12T07:42:48.896Z,14.70
2018-09-12T07:45:19.133Z,14.70
2018-09-12T07:47:49.357Z,14.70
2018-09-12T07:50:19.351Z,14.80
2018-09-12T07:52:48.336Z,14.90
2018-09-12T07:55:17.902Z,15.00
2018-09-12T07:57:51.857Z,14.90
2018-09-12T08:00:21.918Z,15.00
2018-09-12T08:02:55.359Z,15.00
2018-09-12T08:05:25.008Z,15.00
2018-09-12T08:07:55.172Z,15.10
2018-09-12T08:10:24.954Z,15.20
2018-09-12T08:12:55.888Z,15.20
2018-09-12T08:15:26.073Z,15.30
2018-09-12T08:17:56.173Z,15.30
2018-09-12T08:20:25.688Z,15.40
2018-09-12T08:22:55.724Z,15.50
2018-09-12T08:25:25.788Z,15.70
2018-09-12T08:27:55.656Z,15.90
2018-09-12T08:30:26.008Z,16.00
2018-09-12T08:32:55.864Z,16.00
2018-09-12T08:35:26.035Z,16.00
2018-09-12T08:37:56.092Z,16.20
2018-09-12T08:40:25.811Z,16.30
2018-09-12T08:42:56.544Z,16.40
2018-09-12T08:45:26.564Z,16.50
2018-09-12T08:47:56.598Z,16.60
2018-09-12T08:50:26.611Z,16.50
2018-09-12T08:52:57.289Z,16.40
2018-09-12T08:55:26.472Z,16.50
2018-09-12T08:57:56.492Z,16.50
2018-09-12T09:00:32.717Z,16.40
2018-09-12T09:03:02.608Z,16.50
2018-09-12T09:05:33.258Z,16.70
2018-09-12T09:08:02.781Z,16.90
2018-09-12T09:10:32.697Z,16.90
2018-09-12T09:13:02.706Z,17.00
2018-09-12T09:15:32.827Z,17.00
2018-09-12T09:18:02.760Z,17.10
2018-09-12T09:20:32.711Z,17.30
2018-09-12T09:23:02.995Z,17.40
2018-09-12T09:25:33.034Z,17.40
2018-09-12T09:28:02.667Z,17.40
2018-09-12T09:30:34.672Z,17.40
2018-09-12T09:33:04.443Z,17.40
2018-09-12T09:35:34.014Z,17.40
2018-09-12T09:38:04.431Z,17.60
2018-09-12T09:40:35.040Z,17.70
2018-09-12T09:43:04.736Z,17.60
2018-09-12T09:45:35.144Z,17.60
2018-09-12T09:48:04.749Z,17.70
2018-09-12T09:50:34.582Z,17.80
2018-09-12T09:53:04.937Z,17.70
2018-09-12T09:55:34.483Z,17.60
2018-09-12T09:58:04.534Z,17.50
2018-09-12T10:00:39.407Z,17.60
2018-09-12T10:03:14.925Z,17.60
2018-09-12T10:05:50.188Z,17.60
2018-09-12T10:08:25.041Z,17.70
2018-09-12T10:10:54.559Z,17.90
2018-09-12T10:13:24.535Z,18.00
2018-09-12T10:15:54.330Z,18.00
2018-09-12T10:18:24.551Z,17.90
2018-09-12T10:20:54.731Z,17.90
2018-09-12T10:23:25.708Z,17.80
2018-09-12T10:25:56.746Z,17.80
2018-09-12T10:28:27.431Z,17.80
2018-09-12T10:30:57.423Z,17.90
2018-09-12T10:33:27.556Z,17.90
2018-09-12T10:35:57.440Z,17.90
2018-09-12T10:38:27.939Z,17.90
2018-09-12T10:40:57.530Z,18.00
2018-09-12T10:43:27.414Z,17.90
2018-09-12T10:45:57.563Z,18.00
2018-09-12T10:48:27.200Z,18.00
2018-09-12T10:50:57.392Z,18.00
2018-09-12T10:53:27.383Z,18.00
2018-09-12T10:55:58.189Z,18.10
2018-09-12T10:58:28.100Z,18.00
2018-09-12T11:00:58.203Z,18.00
2018-09-12T11:03:28.266Z,18.00
2018-09-12T11:05:58.327Z,18.20
2018-09-12T11:08:28.467Z,18.30
2018-09-12T11:10:58.657Z,18.40
2018-09-12T11:13:28.606Z,18.40
2018-09-12T11:15:58.372Z,18.40
2018-09-12T11:18:28.487Z,18.40
2018-09-12T11:20:58.377Z,18.40
2018-09-12T11:23:29.447Z,18.40
2018-09-12T11:25:58.920Z,18.40
2018-09-12T11:28:28.364Z,18.40
2018-09-12T11:30:58.349Z,18.40
2018-09-12T11:33:30.074Z,18.40
2018-09-12T11:36:00.239Z,18.30
2018-09-12T11:38:31.828Z,18.10
2018-09-12T11:41:03.129Z,18.00
2018-09-12T11:43:34.667Z,17.90
2018-09-12T11:46:09.307Z,17.90
2018-09-12T11:48:41.284Z,17.80
2018-09-12T11:51:14.400Z,17.80
2018-09-12T11:53:44.714Z,17.80
2018-09-12T11:56:14.468Z,17.90
2018-09-12T11:58:43.821Z,18.00
2018-09-12T12:01:17.700Z,18.10
2018-09-12T12:03:48.272Z,18.10
2018-09-12T12:06:18.308Z,17.90
2018-09-12T12:08:48.761Z,17.80
2018-09-12T12:11:18.346Z,17.70
2018-09-12T12:13:48.423Z,17.70
2018-09-12T12:16:18.259Z,17.70
2018-09-12T12:18:48.311Z,17.70
2018-09-12T12:21:18.374Z,17.80
2018-09-12T12:23:48.357Z,17.70
2018-09-12T12:26:18.398Z,17.70
2018-09-12T12:28:48.397Z,17.60
2018-09-12T12:31:19.354Z,17.60
2018-09-12T12:33:49.555Z,17.50
2018-09-12T12:36:20.082Z,17.50
2018-09-12T12:38:49.638Z,17.50
2018-09-12T12:41:19.699Z,17.50
2018-09-12T12:43:49.180Z,17.40
2018-09-12T12:46:19.231Z,17.50
2018-09-12T12:48:49.548Z,17.50
2018-09-12T12:51:19.696Z,17.50
2018-09-12T12:53:49.632Z,17.60
2018-09-12T12:56:19.838Z,17.70
2018-09-12T12:58:49.611Z,17.70
2018-09-12T13:01:19.189Z,17.60
2018-09-12T13:03:49.232Z,17.50
2018-09-12T13:06:19.253Z,17.50
2018-09-12T13:08:49.171Z,17.40
2018-09-12T13:11:19.489Z,17.50
2018-09-12T13:13:49.195Z,17.50
2018-09-12T13:16:19.312Z,17.50
2018-09-12T13:18:49.308Z,17.50
2018-09-12T13:21:19.048Z,17.50
2018-09-12T13:23:48.902Z,17.50
2018-09-12T13:26:19.353Z,17.60
2018-09-12T13:28:49.744Z,17.80
2018-09-12T13:31:19.997Z,17.80
2018-09-12T13:33:50.149Z,17.80
2018-09-12T13:36:20.297Z,17.90
2018-09-12T13:38:50.627Z,17.90
2018-09-12T13:41:21.324Z,17.90
2018-09-12T13:43:51.615Z,18.00
2018-09-12T13:46:21.946Z,18.10
2018-09-12T13:48:52.051Z,18.00
2018-09-12T13:51:22.202Z,17.90
2018-09-12T13:53:52.159Z,18.00
2018-09-12T13:56:23.375Z,18.10
2018-09-12T13:58:53.706Z,18.20
2018-09-12T14:01:23.971Z,18.20
2018-09-12T14:03:54.171Z,18.20
2018-09-12T14:06:23.858Z,18.10
2018-09-12T14:08:53.820Z,18.00
2018-09-12T14:20:30.425Z,17.90
2018-09-12T14:23:00.705Z,17.80
2018-09-12T14:25:30.651Z,17.70
2018-09-12T14:28:02.794Z,17.70
2018-09-12T14:30:32.595Z,17.60
2018-09-12T14:33:02.233Z,17.50
2018-09-12T14:35:31.575Z,17.40
2018-09-12T14:38:01.386Z,17.30
2018-09-12T14:40:31.033Z,17.20
2018-09-12T14:43:00.249Z,17.20
2018-09-12T14:45:29.604Z,17.20
2018-09-12T14:47:58.893Z,17.20
2018-09-12T14:50:28.340Z,17.20
2018-09-12T14:52:59.198Z,17.10
2018-09-12T14:55:29.574Z,17.10
2018-09-12T14:58:00.425Z,17.20
2018-09-12T15:00:29.643Z,17.20
2018-09-12T15:03:00.495Z,17.20
2018-09-12T15:05:31.848Z,17.20
2018-09-12T15:08:01.414Z,17.10
2018-09-12T15:10:31.542Z,17.00
2018-09-12T15:13:01.162Z,17.00
2018-09-12T15:15:30.836Z,16.90
2018-09-12T15:18:00.088Z,16.90
2018-09-12T15:20:30.587Z,16.90
2018-09-12T15:23:00.343Z,16.90
2018-09-12T15:25:30.500Z,16.90
2018-09-12T15:28:01.812Z,16.90
2018-09-12T15:30:31.394Z,16.80
2018-09-12T15:33:00.964Z,16.80
2018-09-12T15:35:30.718Z,16.70
2018-09-12T15:38:02.440Z,16.70
2018-09-12T15:40:39.133Z,16.60
2018-09-12T15:43:09.285Z,16.60
2018-09-12T15:45:39.789Z,16.50
2018-09-12T15:48:10.285Z,16.40
2018-09-12T15:50:39.887Z,16.50
2018-09-12T15:53:10.596Z,16.40
2018-09-12T15:55:42.740Z,16.40
2018-09-12T15:58:12.811Z,16.40
2018-09-12T16:00:47.075Z,16.30
2018-09-12T16:03:16.729Z,16.30
2018-09-12T16:05:46.870Z,16.20
2018-09-12T16:08:17.000Z,16.20
2018-09-12T16:10:47.170Z,16.10
2018-09-12T16:13:17.453Z,16.10
2018-09-12T16:15:46.883Z,16.10
2018-09-12T16:18:17.240Z,16.00
2018-09-12T16:20:48.571Z,16.00
2018-09-12T16:23:19.449Z,16.00
2018-09-12T16:25:50.693Z,16.00
2018-09-12T16:28:20.197Z,15.90
2018-09-12T16:30:49.706Z,15.90
2018-09-12T16:33:19.827Z,15.90
2018-09-12T16:35:49.068Z,15.80
2018-09-12T16:38:19.201Z,15.70
2018-09-12T16:40:49.468Z,15.70
2018-09-12T16:43:19.621Z,15.60
2018-09-12T16:45:50.032Z,15.60
2018-09-12T16:48:23.990Z,15.50
2018-09-12T16:50:54.578Z,15.50
2018-09-12T16:53:24.211Z,15.40
2018-09-12T16:55:54.481Z,15.40
2018-09-12T16:58:25.725Z,15.20
2018-09-12T17:00:55.852Z,15.20
2018-09-12T17:03:26.238Z,15.10
2018-09-12T17:05:56.455Z,15.00
2018-09-12T17:08:26.625Z,15.00
2018-09-12T17:10:56.841Z,14.90
2018-09-12T17:13:29.344Z,14.90
2018-09-12T17:16:03.091Z,14.80
2018-09-12T17:18:34.778Z,14.80
2018-09-12T17:21:16.899Z,14.70
2018-09-12T17:23:47.298Z,14.70
2018-09-12T17:26:17.347Z,14.60
2018-09-12T17:28:47.509Z,14.60
2018-09-12T17:31:17.557Z,14.60
2018-09-12T17:33:49.179Z,14.60
2018-09-12T17:36:19.064Z,14.50
2018-09-12T17:40:18.618Z,14.50
2018-09-12T17:42:48.331Z,14.50
2018-09-12T17:45:17.922Z,14.30
2018-09-12T17:47:49.172Z,14.30
2018-09-12T17:50:19.816Z,14.30
2018-09-12T17:52:51.101Z,14.30
2018-09-12T17:55:21.434Z,14.30
2018-09-12T17:57:51.754Z,14.30
2018-09-12T18:00:22.144Z,14.20
2018-09-12T18:02:57.809Z,14.20
2018-09-12T18:05:27.499Z,14.20
2018-09-12T18:07:58.182Z,14.20
2018-09-12T18:10:28.530Z,14.10
2018-09-12T18:12:58.620Z,14.10
2018-09-12T18:15:28.517Z,14.10
2018-09-12T18:17:57.897Z,14.10
2018-09-12T18:20:27.658Z,14.10
2018-09-12T18:22:57.894Z,14.00
2018-09-12T18:39:11.545Z,14.00
2018-09-12T18:41:42.445Z,13.90
2018-09-12T18:44:13.475Z,13.80
2018-09-12T18:46:44.252Z,13.90
2018-09-12T18:49:14.596Z,13.90
2018-09-12T18:51:46.435Z,13.90
2018-09-12T18:54:18.116Z,13.90
2018-09-12T18:56:48.598Z,13.90
2018-09-12T18:59:19.540Z,13.80
2018-09-12T19:01:49.875Z,13.70
2018-09-12T19:04:19.960Z,13.70
2018-09-12T19:06:50.097Z,13.70
2018-09-12T19:09:20.128Z,13.70
2018-09-12T19:11:49.976Z,13.70
2018-09-12T19:14:20.043Z,13.70
2018-09-12T19:16:51.454Z,13.70
2018-09-12T19:19:21.723Z,13.60
2018-09-12T19:21:51.802Z,13.60
2018-09-12T19:24:22.084Z,13.50
2018-09-12T19:26:52.204Z,13.50
2018-09-12T19:29:21.893Z,13.50
2018-09-12T19:31:52.356Z,13.40
2018-09-12T19:34:24.069Z,13.40
2018-09-12T19:36:54.847Z,13.40
2018-09-12T19:39:28.643Z,13.40
2018-09-12T19:41:58.857Z,13.40
2018-09-12T19:44:29.016Z,13.40
2018-09-12T19:46:59.028Z,13.30
2018-09-12T19:49:29.095Z,13.30
2018-09-12T19:51:58.911Z,13.20
2018-09-12T19:54:30.252Z,13.20
2018-09-12T19:57:00.366Z,13.10
2018-09-12T19:59:30.432Z,13.10
2018-09-12T20:02:00.807Z,13.10
2018-09-12T20:04:31.057Z,13.10
2018-09-12T20:07:01.112Z,13.10
2018-09-12T20:09:31.460Z,13.10
2018-09-12T20:12:01.604Z,13.10
2018-09-12T20:14:31.556Z,13.20
2018-09-12T20:17:01.604Z,13.10
2018-09-12T20:19:31.528Z,13.20
2018-09-12T20:22:01.636Z,13.10
2018-09-12T20:24:31.774Z,13.10
2018-09-12T20:27:01.924Z,13.10
2018-09-12T20:29:31.999Z,13.20
2018-09-12T20:32:02.308Z,13.10
2018-09-12T20:34:32.413Z,13.10
2018-09-12T20:37:02.199Z,13.10
2018-09-12T20:39:32.459Z,13.00
2018-09-12T20:42:02.571Z,13.00
2018-09-12T20:44:32.732Z,13.10
2018-09-12T20:47:02.711Z,13.00
2018-09-12T20:49:32.892Z,13.00
2018-09-12T20:52:03.063Z,13.00
2018-09-12T20:54:32.899Z,13.00
2018-09-12T20:57:02.984Z,13.00
2018-09-12T20:59:32.523Z,13.00
2018-09-12T21:02:02.601Z,13.00
2018-09-12T21:04:32.671Z,12.90
2018-09-12T21:07:03.172Z,13.00
2018-09-12T21:09:34.328Z,12.90
2018-09-12T21:12:04.375Z,12.90
2018-09-12T21:14:38.184Z,12.90
2018-09-12T21:17:08.012Z,12.80
2018-09-12T21:19:38.447Z,12.80
2018-09-12T21:22:08.467Z,12.80
2018-09-12T21:24:38.615Z,12.80
2018-09-12T21:27:08.440Z,12.80
2018-09-12T21:29:38.584Z,12.80
2018-09-12T21:32:08.602Z,12.70
2018-09-12T21:34:38.889Z,12.70
2018-09-12T21:37:08.729Z,12.70
2018-09-12T21:39:38.995Z,12.60
2018-09-12T21:42:09.377Z,12.60
2018-09-12T21:44:39.503Z,12.60
2018-09-12T21:47:09.429Z,12.60
2018-09-12T21:49:39.559Z,12.60
2018-09-12T21:52:09.493Z,12.60
2018-09-12T21:54:39.447Z,12.60
2018-09-12T21:57:09.904Z,12.60
2018-09-12T21:59:41.456Z,12.60
2018-09-12T22:02:11.524Z,12.60
2018-09-12T22:04:41.554Z,12.60
2018-09-12T22:07:11.440Z,12.50
2018-09-12T22:09:41.380Z,12.50
2018-09-12T22:12:11.404Z,12.60
2018-09-12T22:14:41.473Z,12.50
2018-09-12T22:17:11.599Z,12.50
2018-09-12T22:19:41.712Z,12.40
2018-09-12T22:22:11.840Z,12.40
2018-09-12T22:24:42.165Z,12.40
2018-09-12T22:27:12.321Z,12.40
2018-09-12T22:29:42.512Z,12.40
2018-09-12T22:32:12.344Z,12.40
2018-09-12T22:34:42.432Z,12.40
2018-09-12T22:37:12.507Z,12.30
2018-09-12T22:39:42.708Z,12.30
2018-09-12T22:42:12.718Z,12.30
2018-09-12T22:44:43.177Z,12.20
2018-09-12T22:47:13.364Z,12.20
2018-09-12T22:49:43.444Z,12.20
2018-09-12T22:52:14.180Z,12.20
2018-09-12T22:54:44.396Z,12.20
2018-09-12T22:57:14.408Z,12.20
2018-09-12T22:59:44.691Z,12.20
2018-09-12T23:02:15.214Z,12.20
2018-09-12T23:04:46.251Z,12.20
2018-09-12T23:07:16.589Z,12.20
2018-09-12T23:09:46.988Z,12.10
2018-09-12T23:12:17.447Z,12.10
2018-09-12T23:14:47.327Z,12.10
2018-09-12T23:17:17.473Z,12.10
2018-09-12T23:19:48.707Z,12.10
2018-09-12T23:22:18.993Z,12.10
2018-09-12T23:24:49.159Z,12.20
2018-09-12T23:27:19.313Z,12.10
2018-09-12T23:29:49.494Z,12.10
2018-09-12T23:32:19.892Z,12.10
2018-09-12T23:34:49.320Z,12.20
2018-09-12T23:37:20.402Z,12.10
2018-09-12T23:39:50.752Z,12.10
2018-09-12T23:42:20.900Z,12.00
2018-09-12T23:44:51.098Z,12.00
2018-09-12T23:47:21.152Z,12.00
2018-09-12T23:49:51.519Z,12.00
2018-09-12T23:52:21.724Z,12.00
2018-09-12T23:54:51.727Z,11.90
2018-09-12T23:57:21.739Z,12.00
2018-09-12T23:59:51.961Z,11.90
